Time;durP1;ratioP1;P1;durP2;ratioP2;P2;SDS_P1;SDS_P2;PMS_P1;PMS_P2;Temp;Humidity;BMP_temperature;BMP_pressure;BME280_temperature;BME280_humidity;BME280_pressure;Samples;Min_cycle;Max_cycle;Signal;HPM_P1;HPM_P2
2022/05/22 00:02:02;;;;;;;12.10;6.45;;;;;;;;;;5040518;28;20119;-66
2022/05/22 00:04:29;;;;;;;8.82;5.05;;;;;;;;;;5044005;28;20123;-64
2022/05/22 00:06:55;;;;;;;9.85;5.15;;;;;;;;;;5038149;28;20373;-67
2022/05/22 00:09:21;;;;;;;14.60;5.93;;;;;;;;;;5034800;28;20057;-66
2022/05/22 00:11:47;;;;;;;14.48;6.43;;;;;;;;;;5040252;28;20147;-65
2022/05/22 00:14:13;;;;;;;14.20;6.50;;;;;;;;;;5037634;28;20060;-64
2022/05/22 00:16:41;;;;;;;19.00;5.65;;;;;;;;;;5043067;28;20418;-66
2022/05/22 00:19:10;;;;;;;16.02;6.20;;;;;;;;;;5030946;28;20045;-64
2022/05/22 00:21:36;;;;;;;20.35;6.32;;;;;;;;;;5041247;28;20057;-64
2022/05/22 00:24:03;;;;;;;16.30;6.45;;;;;;;;;;5044413;28;20091;-64
2022/05/22 00:26:29;;;;;;;15.18;6.50;;;;;;;;;;5042627;28;20773;-64
2022/05/22 00:28:55;;;;;;;14.18;6.47;;;;;;;;;;5044547;28;20053;-67
2022/05/22 00:31:21;;;;;;;15.30;6.72;;;;;;;;;;5037613;28;20109;-64
2022/05/22 00:33:47;;;;;;;14.98;5.97;;;;;;;;;;5037863;28;20037;-64
2022/05/22 00:36:13;;;;;;;21.85;6.90;;;;;;;;;;5036517;28;20097;-64
2022/05/22 00:38:39;;;;;;;22.83;6.93;;;;;;;;;;5047312;28;20052;-66
2022/05/22 00:41:06;;;;;;;13.70;6.60;;;;;;;;;;5038004;28;20045;-64
2022/05/22 00:43:41;;;;;;;16.27;6.78;;;;;;;;;;5032939;28;20052;-64
2022/05/22 00:46:11;;;;;;;14.50;7.45;;;;;;;;;;5032920;28;20049;-64
2022/05/22 00:48:39;;;;;;;18.48;6.85;;;;;;;;;;5040672;28;20215;-63
2022/05/22 00:51:20;;;;;;;22.30;6.88;;;;;;;;;;5031196;28;20053;-64
2022/05/22 00:53:54;;;;;;;15.93;6.57;;;;;;;;;;5047804;28;20118;-63
2022/05/22 00:56:25;;;;;;;18.05;6.13;;;;;;;;;;5035108;28;20077;-63
2022/05/22 00:58:54;;;;;;;16.38;6.63;;;;;;;;;;5031011;28;20053;-64
2022/05/22 01:01:21;;;;;;;18.52;7.05;;;;;;;;;;5041608;28;20044;-63
2022/05/22 01:03:47;;;;;;;14.43;6.45;;;;;;;;;;5036480;28;20142;-64
2022/05/22 01:06:17;;;;;;;19.98;6.57;;;;;;;;;;5029681;28;20076;-63
2022/05/22 01:08:43;;;;;;;14.65;6.65;;;;;;;;;;5045292;28;20416;-63
2022/05/22 01:11:15;;;;;;;22.02;6.80;;;;;;;;;;5040144;28;20571;-62
2022/05/22 01:13:50;;;;;;;18.63;6.45;;;;;;;;;;5052331;28;20053;-65
2022/05/22 01:16:16;;;;;;;14.02;6.05;;;;;;;;;;5044949;28;20041;-62
2022/05/22 01:18:51;;;;;;;14.30;6.38;;;;;;;;;;5039224;28;20049;-64
2022/05/22 01:21:22;;;;;;;17.05;7.47;;;;;;;;;;5045774;28;20072;-64
2022/05/22 01:23:49;;;;;;;19.13;8.05;;;;;;;;;;5048971;28;20068;-65
2022/05/22 01:26:16;;;;;;;22.67;8.00;;;;;;;;;;5041264;28;20049;-65
2022/05/22 01:28:42;;;;;;;20.17;7.97;;;;;;;;;;5053159;28;20090;-65
2022/05/22 01:31:09;;;;;;;16.60;7.40;;;;;;;;;;5047600;28;20162;-64
2022/05/22 01:33:37;;;;;;;17.42;7.25;;;;;;;;;;5034694;28;20050;-63
2022/05/22 01:36:04;;;;;;;27.73;7.47;;;;;;;;;;5038846;28;20154;-64
2022/05/22 01:38:30;;;;;;;22.27;7.93;;;;;;;;;;5042332;28;20557;-62
2022/05/22 01:40:56;;;;;;;21.27;7.65;;;;;;;;;;5050180;28;20058;-64
2022/05/22 01:43:22;;;;;;;18.90;7.32;;;;;;;;;;5050170;28;20128;-62
2022/05/22 01:45:48;;;;;;;19.30;6.90;;;;;;;;;;5049967;28;20075;-64
2022/05/22 01:48:14;;;;;;;20.05;6.72;;;;;;;;;;5045591;28;20045;-64
2022/05/22 01:50:41;;;;;;;29.92;6.82;;;;;;;;;;5047372;28;20278;-64
2022/05/22 01:53:07;;;;;;;15.20;6.95;;;;;;;;;;5047138;28;20523;-64
2022/05/22 01:55:33;;;;;;;17.10;5.95;;;;;;;;;;5045404;28;20053;-63
2022/05/22 01:57:59;;;;;;;15.15;5.88;;;;;;;;;;5043448;28;20053;-64
2022/05/22 02:00:26;;;;;;;14.00;6.32;;;;;;;;;;5040622;28;20041;-64
2022/05/22 02:02:56;;;;;;;16.67;5.55;;;;;;;;;;5053798;28;20045;-63
2022/05/22 02:05:23;;;;;;;15.35;5.95;;;;;;;;;;5038868;28;20045;-63
2022/05/22 02:10:35;;;;;;;14.85;6.40;;;;;;;;;;5045445;28;20492;-63
2022/05/22 02:13:01;;;;;;;13.30;6.30;;;;;;;;;;5034868;28;20235;-65
2022/05/22 02:15:27;;;;;;;9.95;4.95;;;;;;;;;;5036707;28;20610;-62
2022/05/22 02:17:54;;;;;;;17.90;5.80;;;;;;;;;;5036680;28;20382;-63
2022/05/22 02:20:20;;;;;;;22.60;5.25;;;;;;;;;;5041658;28;20045;-63
2022/05/22 02:22:51;;;;;;;10.73;5.32;;;;;;;;;;5046733;28;20099;-63
2022/05/22 02:25:20;;;;;;;16.05;5.47;;;;;;;;;;5049130;28;20064;-64
2022/05/22 02:27:46;;;;;;;13.00;5.55;;;;;;;;;;5041409;28;20530;-64
2022/05/22 02:30:16;;;;;;;12.00;4.97;;;;;;;;;;5045178;28;20116;-63
2022/05/22 02:32:42;;;;;;;10.07;5.18;;;;;;;;;;5047016;28;20519;-63
2022/05/22 02:35:11;;;;;;;14.90;5.68;;;;;;;;;;5035401;28;20110;-63
2022/05/22 02:37:40;;;;;;;11.27;5.40;;;;;;;;;;5036647;28;20060;-61
2022/05/22 02:40:07;;;;;;;8.50;5.25;;;;;;;;;;5049363;28;20500;-61
2022/05/22 02:42:35;;;;;;;17.65;6.07;;;;;;;;;;5048303;28;20045;-63
2022/05/22 02:45:01;;;;;;;13.13;5.53;;;;;;;;;;5048060;28;20512;-65
2022/05/22 02:47:27;;;;;;;12.68;6.05;;;;;;;;;;5047543;28;20047;-62
2022/05/22 02:49:52;;;;;;;16.52;6.35;;;;;;;;;;5038197;28;20054;-65
2022/05/22 02:52:18;;;;;;;10.32;4.95;;;;;;;;;;5034838;28;20041;-65
2022/05/22 02:54:44;;;;;;;15.57;5.65;;;;;;;;;;5041087;28;20052;-66
2022/05/22 02:57:10;;;;;;;8.82;5.13;;;;;;;;;;5047910;28;20372;-61
2022/05/22 02:59:36;;;;;;;17.15;5.75;;;;;;;;;;5044222;28;20120;-66
2022/05/22 03:02:02;;;;;;;11.10;5.53;;;;;;;;;;5045650;28;20340;-64
2022/05/22 03:04:28;;;;;;;14.50;5.22;;;;;;;;;;5046195;28;20045;-65
2022/05/22 03:06:53;;;;;;;11.60;5.15;;;;;;;;;;5032907;28;20052;-62
2022/05/22 03:09:19;;;;;;;15.85;5.45;;;;;;;;;;5035662;28;20067;-64
2022/05/22 03:11:45;;;;;;;11.65;4.88;;;;;;;;;;5041970;28;20041;-63
2022/05/22 03:14:11;;;;;;;9.75;4.60;;;;;;;;;;5048380;28;20124;-62
2022/05/22 03:16:37;;;;;;;12.73;4.50;;;;;;;;;;5043392;28;20419;-63
2022/05/22 03:19:03;;;;;;;9.25;4.35;;;;;;;;;;5036374;28;20106;-63
2022/05/22 03:21:29;;;;;;;7.63;4.38;;;;;;;;;;5041390;28;20048;-64
2022/05/22 03:23:55;;;;;;;18.70;4.78;;;;;;;;;;5043423;28;20064;-62
2022/05/22 03:26:21;;;;;;;10.07;4.75;;;;;;;;;;5036937;28;20417;-63
2022/05/22 03:28:47;;;;;;;7.28;4.45;;;;;;;;;;5037779;28;20042;-63
2022/05/22 03:31:16;;;;;;;9.82;4.32;;;;;;;;;;5042458;28;20336;-63
2022/05/22 03:33:42;;;;;;;10.40;4.50;;;;;;;;;;5046258;28;20045;-62
2022/05/22 03:36:07;;;;;;;13.70;4.43;;;;;;;;;;5046081;28;20115;-63
2022/05/22 03:38:33;;;;;;;12.98;4.20;;;;;;;;;;5035747;28;20523;-62
2022/05/22 03:40:59;;;;;;;11.63;4.30;;;;;;;;;;5041178;28;20056;-62
2022/05/22 03:43:25;;;;;;;11.63;4.75;;;;;;;;;;5038104;28;20037;-64
2022/05/22 03:45:51;;;;;;;9.27;4.13;;;;;;;;;;5034763;28;20042;-64
2022/05/22 03:48:17;;;;;;;9.02;4.15;;;;;;;;;;5038188;28;20044;-62
2022/05/22 03:50:42;;;;;;;13.38;4.78;;;;;;;;;;5038281;28;20095;-63
2022/05/22 03:53:08;;;;;;;8.38;4.55;;;;;;;;;;5030192;28;20152;-64
2022/05/22 03:55:34;;;;;;;9.52;4.30;;;;;;;;;;5032736;28;20118;-64
2022/05/22 03:58:00;;;;;;;11.07;4.57;;;;;;;;;;5035306;28;20261;-62
2022/05/22 04:00:26;;;;;;;13.43;4.68;;;;;;;;;;5033788;28;20047;-63
2022/05/22 04:02:53;;;;;;;10.43;4.65;;;;;;;;;;5035742;28;20053;-64
2022/05/22 04:05:19;;;;;;;11.57;5.00;;;;;;;;;;5041505;28;20139;-63
2022/05/22 04:07:47;;;;;;;8.23;4.40;;;;;;;;;;5047074;28;20102;-63
2022/05/22 04:10:15;;;;;;;7.07;4.43;;;;;;;;;;5046894;28;20056;-63
2022/05/22 04:12:44;;;;;;;7.95;4.15;;;;;;;;;;5039774;28;20041;-64
2022/05/22 04:15:13;;;;;;;8.20;4.00;;;;;;;;;;5038175;28;20104;-64
2022/05/22 04:17:39;;;;;;;12.85;4.38;;;;;;;;;;5034113;28;20098;-62
2022/05/22 04:20:07;;;;;;;9.02;4.60;;;;;;;;;;5038988;28;20059;-64
2022/05/22 04:25:10;;;;;;;6.75;3.78;;;;;;;;;;5042297;28;20052;-63
2022/05/22 04:25:21;;;;;;;7.55;4.15;;;;;;;;;;5037695;28;20122;-64
2022/05/22 04:27:47;;;;;;;9.50;4.07;;;;;;;;;;5043003;28;20041;-62
2022/05/22 04:30:17;;;;;;;6.63;4.03;;;;;;;;;;5040271;28;20041;-63
2022/05/22 04:32:45;;;;;;;12.80;4.47;;;;;;;;;;5029300;28;20045;-63
2022/05/22 04:35:11;;;;;;;9.38;4.40;;;;;;;;;;5041233;28;20037;-62
2022/05/22 04:37:36;;;;;;;8.50;3.95;;;;;;;;;;5034903;28;20503;-64
2022/05/22 04:40:03;;;;;;;10.70;4.28;;;;;;;;;;5045603;28;20053;-66
2022/05/22 04:42:28;;;;;;;10.82;4.15;;;;;;;;;;5047103;28;20469;-63
2022/05/22 04:44:54;;;;;;;8.18;3.70;;;;;;;;;;5041296;28;20124;-66
2022/05/22 04:47:20;;;;;;;9.60;3.63;;;;;;;;;;5033159;28;20068;-64
2022/05/22 04:49:49;;;;;;;6.35;3.70;;;;;;;;;;5029016;28;20080;-64
2022/05/22 04:52:15;;;;;;;10.18;3.97;;;;;;;;;;5027537;28;20448;-62
2022/05/22 04:54:41;;;;;;;12.80;4.30;;;;;;;;;;5042055;28;20124;-63
2022/05/22 04:57:07;;;;;;;10.93;3.88;;;;;;;;;;5041863;28;20045;-65
2022/05/22 04:59:33;;;;;;;8.25;4.28;;;;;;;;;;5044078;28;20385;-64
2022/05/22 05:02:00;;;;;;;9.73;4.13;;;;;;;;;;5033174;28;20049;-63
2022/05/22 05:04:26;;;;;;;8.90;4.38;;;;;;;;;;5030954;28;20069;-63
2022/05/22 05:06:52;;;;;;;11.88;4.75;;;;;;;;;;5038493;28;20087;-62
2022/05/22 05:09:19;;;;;;;10.60;4.70;;;;;;;;;;5029108;28;20053;-64
2022/05/22 05:11:44;;;;;;;11.43;5.13;;;;;;;;;;5031782;28;20447;-63
2022/05/22 05:14:10;;;;;;;9.45;5.13;;;;;;;;;;5035276;28;20065;-63
2022/05/22 05:16:36;;;;;;;10.77;5.18;;;;;;;;;;5035833;28;20053;-64
2022/05/22 05:19:02;;;;;;;10.48;4.82;;;;;;;;;;5040282;28;20052;-64
2022/05/22 05:21:28;;;;;;;10.60;5.30;;;;;;;;;;5039835;28;20037;-66
2022/05/22 05:23:57;;;;;;;12.10;5.68;;;;;;;;;;5039951;28;20049;-63
2022/05/22 05:26:23;;;;;;;17.02;6.60;;;;;;;;;;5036089;28;20052;-63
2022/05/22 05:28:49;;;;;;;10.57;6.30;;;;;;;;;;5035880;28;20056;-62
2022/05/22 05:31:15;;;;;;;11.85;4.40;;;;;;;;;;5035916;28;20495;-64
2022/05/22 05:33:41;;;;;;;7.00;4.03;;;;;;;;;;5038503;28;20049;-64
2022/05/22 05:36:09;;;;;;;8.18;4.20;;;;;;;;;;5037444;28;20432;-64
2022/05/22 05:38:35;;;;;;;10.85;4.50;;;;;;;;;;5037041;28;20584;-63
2022/05/22 05:41:01;;;;;;;12.77;4.60;;;;;;;;;;5038557;28;20084;-64
2022/05/22 05:43:27;;;;;;;12.38;4.68;;;;;;;;;;5037281;28;20453;-66
2022/05/22 05:45:53;;;;;;;8.45;4.13;;;;;;;;;;5038034;28;20071;-65
2022/05/22 05:48:19;;;;;;;8.43;4.40;;;;;;;;;;5038532;28;20049;-63
2022/05/22 05:50:45;;;;;;;8.02;4.05;;;;;;;;;;5037228;28;20049;-65
2022/05/22 05:53:10;;;;;;;10.02;4.40;;;;;;;;;;5036340;28;20057;-64
2022/05/22 05:55:36;;;;;;;5.72;4.15;;;;;;;;;;5036993;28;20140;-64
2022/05/22 05:58:03;;;;;;;12.00;4.22;;;;;;;;;;5036292;28;20056;-65
2022/05/22 06:00:29;;;;;;;10.73;4.10;;;;;;;;;;5040703;28;20049;-65
2022/05/22 06:02:55;;;;;;;12.13;4.95;;;;;;;;;;5039927;28;20132;-66
2022/05/22 06:05:23;;;;;;;12.55;4.75;;;;;;;;;;5044680;28;20056;-63
2022/05/22 06:07:52;;;;;;;12.82;4.43;;;;;;;;;;5041216;28;20045;-64
2022/05/22 06:10:20;;;;;;;7.72;4.00;;;;;;;;;;5042337;28;20705;-65
2022/05/22 06:12:46;;;;;;;8.98;4.00;;;;;;;;;;5041593;28;20367;-64
2022/05/22 06:15:13;;;;;;;9.07;4.10;;;;;;;;;;5041914;28;20056;-64
2022/05/22 06:17:44;;;;;;;7.43;4.13;;;;;;;;;;5038581;28;20124;-64
2022/05/22 06:20:12;;;;;;;10.50;4.40;;;;;;;;;;5039891;28;20775;-64
2022/05/22 06:22:38;;;;;;;8.55;3.95;;;;;;;;;;5040663;28;20045;-63
2022/05/22 06:25:07;;;;;;;6.15;3.72;;;;;;;;;;5041258;28;20060;-64
2022/05/22 06:27:33;;;;;;;15.05;3.80;;;;;;;;;;5039437;28;20444;-68
2022/05/22 06:29:59;;;;;;;9.15;4.10;;;;;;;;;;5040412;28;20057;-64
2022/05/22 06:32:24;;;;;;;6.53;3.70;;;;;;;;;;5044797;28;20080;-63
2022/05/22 06:34:51;;;;;;;8.95;3.95;;;;;;;;;;5039566;28;20055;-63
2022/05/22 06:37:19;;;;;;;9.38;4.25;;;;;;;;;;5038426;28;20102;-62
2022/05/22 06:39:51;;;;;;;12.00;4.22;;;;;;;;;;5040458;28;20598;-66
2022/05/22 06:42:32;;;;;;;12.65;4.90;;;;;;;;;;5041081;28;20305;-63
2022/05/22 06:44:59;;;;;;;8.63;4.45;;;;;;;;;;5043334;28;20045;-65
2022/05/22 06:47:28;;;;;;;8.57;4.40;;;;;;;;;;5040236;28;20232;-63
2022/05/22 06:49:55;;;;;;;11.73;4.20;;;;;;;;;;5039022;28;20074;-65
2022/05/22 06:52:21;;;;;;;8.32;3.80;;;;;;;;;;5039346;28;20052;-66
2022/05/22 06:54:48;;;;;;;15.15;4.43;;;;;;;;;;5038426;28;20053;-64
2022/05/22 06:57:19;;;;;;;10.82;4.65;;;;;;;;;;5038961;28;20060;-63
2022/05/22 06:59:46;;;;;;;13.10;4.85;;;;;;;;;;5040126;28;20652;-65
2022/05/22 07:02:13;;;;;;;7.53;4.53;;;;;;;;;;5040265;28;20053;-64
2022/05/22 07:04:40;;;;;;;11.23;5.00;;;;;;;;;;5040904;28;20505;-64
2022/05/22 07:07:07;;;;;;;14.70;5.20;;;;;;;;;;5041398;28;20053;-65
2022/05/22 07:09:34;;;;;;;12.00;5.60;;;;;;;;;;5038964;28;20369;-64
2022/05/22 07:12:00;;;;;;;18.77;5.00;;;;;;;;;;5039073;28;20046;-66
2022/05/22 07:14:28;;;;;;;15.13;5.00;;;;;;;;;;5034584;28;20059;-68
2022/05/22 07:16:54;;;;;;;11.30;4.72;;;;;;;;;;5040646;28;20053;-65
2022/05/22 07:19:21;;;;;;;11.63;5.18;;;;;;;;;;5040114;28;20083;-64
2022/05/22 07:21:47;;;;;;;11.75;5.13;;;;;;;;;;5041758;28;20151;-69
2022/05/22 07:24:14;;;;;;;12.55;4.63;;;;;;;;;;5035171;28;20053;-67
2022/05/22 07:26:40;;;;;;;6.90;4.60;;;;;;;;;;5038811;28;20056;-67
2022/05/22 07:29:06;;;;;;;10.27;4.38;;;;;;;;;;5041436;28;20064;-70
2022/05/22 07:31:34;;;;;;;10.15;5.18;;;;;;;;;;5039654;28;20512;-65
2022/05/22 07:34:00;;;;;;;12.13;4.90;;;;;;;;;;5036829;28;20083;-66
2022/05/22 07:36:26;;;;;;;9.07;4.78;;;;;;;;;;5040644;28;20416;-65
2022/05/22 07:38:52;;;;;;;12.82;4.88;;;;;;;;;;5041941;28;20420;-65
2022/05/22 07:41:18;;;;;;;10.30;4.55;;;;;;;;;;5041087;28;20063;-65
2022/05/22 07:43:44;;;;;;;8.25;4.70;;;;;;;;;;5038495;28;20093;-68
2022/05/22 07:46:14;;;;;;;9.73;4.82;;;;;;;;;;5036354;28;20120;-67
2022/05/22 07:48:44;;;;;;;11.80;4.43;;;;;;;;;;5037059;28;20048;-65
2022/05/22 07:51:12;;;;;;;9.52;4.78;;;;;;;;;;5035002;28;20080;-66
2022/05/22 07:53:39;;;;;;;10.43;4.32;;;;;;;;;;5039572;28;20075;-66
2022/05/22 07:56:05;;;;;;;9.30;4.03;;;;;;;;;;5037689;28;20135;-66
2022/05/22 07:58:31;;;;;;;10.90;4.25;;;;;;;;;;5039590;28;20045;-68
2022/05/22 08:00:57;;;;;;;11.73;4.65;;;;;;;;;;5035665;28;20041;-67
2022/05/22 08:03:24;;;;;;;12.93;4.50;;;;;;;;;;5037478;28;20547;-65
2022/05/22 08:05:51;;;;;;;9.43;4.30;;;;;;;;;;5034291;28;20049;-65
2022/05/22 08:08:17;;;;;;;9.07;4.28;;;;;;;;;;5037731;28;20122;-64
2022/05/22 08:10:44;;;;;;;10.48;4.30;;;;;;;;;;5038979;28;20049;-64
2022/05/22 08:13:11;;;;;;;10.75;4.32;;;;;;;;;;5042468;28;20045;-65
2022/05/22 08:15:38;;;;;;;14.43;4.60;;;;;;;;;;5041157;28;20060;-67
2022/05/22 08:18:07;;;;;;;7.90;3.55;;;;;;;;;;5037777;28;20045;-67
2022/05/22 08:20:34;;;;;;;5.72;3.17;;;;;;;;;;5037623;28;20049;-64
2022/05/22 08:23:14;;;;;;;7.63;3.08;;;;;;;;;;5043561;28;20041;-66
2022/05/22 08:25:40;;;;;;;5.43;2.78;;;;;;;;;;5040445;28;20057;-70
2022/05/22 08:28:06;;;;;;;7.88;2.63;;;;;;;;;;5033036;28;20064;-68
2022/05/22 08:30:33;;;;;;;5.95;2.45;;;;;;;;;;5037311;28;20048;-70
2022/05/22 08:33:01;;;;;;;5.95;2.55;;;;;;;;;;5033999;28;20179;-68
2022/05/22 08:35:32;;;;;;;6.38;2.60;;;;;;;;;;5037502;28;20037;-70
2022/05/22 08:37:59;;;;;;;6.57;2.47;;;;;;;;;;5037356;28;20366;-71
2022/05/22 08:40:28;;;;;;;5.72;2.80;;;;;;;;;;5036666;28;20040;-72
2022/05/22 08:43:18;;;;;;;6.70;2.88;;;;;;;;;;5038806;28;20044;-70
2022/05/22 08:45:51;;;;;;;9.93;3.10;;;;;;;;;;5032739;28;20041;-69
2022/05/22 08:48:29;;;;;;;8.38;2.80;;;;;;;;;;5032192;28;20049;-63
2022/05/22 08:50:58;;;;;;;6.90;2.85;;;;;;;;;;5038906;28;20048;-63
2022/05/22 08:53:48;;;;;;;6.82;2.92;;;;;;;;;;5037873;28;20403;-63
2022/05/22 08:59:06;;;;;;;6.43;3.10;;;;;;;;;;5044702;28;20079;-64
2022/05/22 09:01:49;;;;;;;9.75;3.10;;;;;;;;;;5035609;28;20098;-63
2022/05/22 09:04:31;;;;;;;7.32;2.53;;;;;;;;;;5043228;28;20060;-64
2022/05/22 09:07:19;;;;;;;8.68;2.55;;;;;;;;;;5033203;28;20061;-65
2022/05/22 09:09:57;;;;;;;5.15;2.60;;;;;;;;;;5032523;28;20052;-63
2022/05/22 09:12:48;;;;;;;9.15;2.80;;;;;;;;;;5041490;28;20057;-63
2022/05/22 09:15:17;;;;;;;7.40;3.15;;;;;;;;;;5028221;28;20106;-63
2022/05/22 09:18:10;;;;;;;10.18;3.05;;;;;;;;;;5034093;28;20099;-64
2022/05/22 09:20:57;;;;;;;7.40;3.38;;;;;;;;;;5028211;28;20061;-63
2022/05/22 09:23:41;;;;;;;8.27;2.95;;;;;;;;;;5037372;28;20488;-72
2022/05/22 09:26:18;;;;;;;6.93;3.50;;;;;;;;;;5034174;28;20592;-63
2022/05/22 09:28:55;;;;;;;8.32;3.55;;;;;;;;;;5031583;28;20568;-63
2022/05/22 09:31:48;;;;;;;7.68;3.20;;;;;;;;;;5030298;28;20044;-63
2022/05/22 09:34:22;;;;;;;9.77;3.20;;;;;;;;;;5044803;28;20071;-64
2022/05/22 09:36:51;;;;;;;9.57;3.20;;;;;;;;;;5041281;28;20049;-64
2022/05/22 09:39:35;;;;;;;9.80;3.00;;;;;;;;;;5050169;28;20186;-64
2022/05/22 09:42:20;;;;;;;5.15;2.50;;;;;;;;;;5032449;28;20713;-64
2022/05/22 09:45:13;;;;;;;9.10;2.42;;;;;;;;;;5042617;28;20136;-64
2022/05/22 09:47:39;;;;;;;8.75;2.47;;;;;;;;;;5032850;28;20124;-68
2022/05/22 09:50:20;;;;;;;7.82;2.30;;;;;;;;;;5028383;28;20572;-62
2022/05/22 09:52:57;;;;;;;8.05;2.42;;;;;;;;;;5028028;28;20057;-64
2022/05/22 09:55:42;;;;;;;4.15;2.40;;;;;;;;;;5037424;28;20091;-64
2022/05/22 09:58:45;;;;;;;10.13;2.50;;;;;;;;;;5037188;28;20049;-66
2022/05/22 10:01:20;;;;;;;7.18;2.30;;;;;;;;;;5038352;28;20703;-66
2022/05/22 10:04:12;;;;;;;11.52;2.28;;;;;;;;;;5046041;28;20057;-63
2022/05/22 10:06:50;;;;;;;5.75;2.38;;;;;;;;;;5043852;28;20251;-63
2022/05/22 10:09:55;;;;;;;6.70;2.63;;;;;;;;;;5027548;28;20041;-64
2022/05/22 10:12:38;;;;;;;9.80;3.38;;;;;;;;;;5042165;28;20053;-63
2022/05/22 10:15:15;;;;;;;10.40;2.63;;;;;;;;;;5036555;28;20159;-65
2022/05/22 10:18:02;;;;;;;9.63;2.90;;;;;;;;;;5037254;28;20060;-64
2022/05/22 10:20:55;;;;;;;11.00;3.00;;;;;;;;;;5045797;28;20049;-63
2022/05/22 10:23:30;;;;;;;7.03;2.83;;;;;;;;;;5040329;28;20045;-66
2022/05/22 10:26:26;;;;;;;9.27;2.95;;;;;;;;;;5039976;28;20049;-63
2022/05/22 10:28:58;;;;;;;16.92;3.05;;;;;;;;;;5036569;28;20075;-64
2022/05/22 10:31:41;;;;;;;13.27;3.17;;;;;;;;;;5042358;28;20041;-65
2022/05/22 10:34:22;;;;;;;7.20;3.30;;;;;;;;;;5051731;28;20205;-63
2022/05/22 10:36:54;;;;;;;9.20;3.13;;;;;;;;;;5032148;28;20057;-62
2022/05/22 10:39:20;;;;;;;10.68;3.80;;;;;;;;;;5032259;28;20465;-64
2022/05/22 10:44:52;;;;;;;11.02;3.17;;;;;;;;;;5042677;28;20100;-62
2022/05/22 10:47:30;;;;;;;11.65;2.88;;;;;;;;;;5045108;28;20415;-64
2022/05/22 10:49:58;;;;;;;9.20;3.03;;;;;;;;;;5033510;28;20053;-65
2022/05/22 10:52:33;;;;;;;10.88;3.42;;;;;;;;;;5048693;28;20052;-62
2022/05/22 10:54:59;;;;;;;10.00;3.20;;;;;;;;;;5050039;28;20053;-63
2022/05/22 10:57:31;;;;;;;9.90;3.13;;;;;;;;;;5050921;28;20045;-63
2022/05/22 11:00:12;;;;;;;8.27;3.30;;;;;;;;;;5034220;28;20046;-62
2022/05/22 11:02:39;;;;;;;6.90;3.20;;;;;;;;;;5043876;28;20060;-65
2022/05/22 11:05:20;;;;;;;8.75;3.33;;;;;;;;;;5045302;28;20467;-66
2022/05/22 11:07:53;;;;;;;10.20;3.30;;;;;;;;;;5042666;28;20404;-64
2022/05/22 11:10:35;;;;;;;15.83;3.33;;;;;;;;;;5049301;28;20528;-64
2022/05/22 11:13:10;;;;;;;13.52;3.95;;;;;;;;;;5032420;28;20048;-63
2022/05/22 11:15:42;;;;;;;11.82;4.05;;;;;;;;;;5054867;28;20049;-64
2022/05/22 11:18:10;;;;;;;9.40;3.80;;;;;;;;;;5063011;28;20557;-63
2022/05/22 11:20:44;;;;;;;10.73;4.18;;;;;;;;;;5044287;28;20098;-63
2022/05/22 11:23:38;;;;;;;7.28;3.80;;;;;;;;;;5039134;28;20049;-66
2022/05/22 11:26:25;;;;;;;9.77;3.80;;;;;;;;;;5044152;28;20386;-62
2022/05/22 11:29:16;;;;;;;8.35;3.40;;;;;;;;;;5032027;28;20433;-63
2022/05/22 11:31:57;;;;;;;7.20;3.40;;;;;;;;;;5028203;28;20451;-61
2022/05/22 11:34:41;;;;;;;7.80;3.25;;;;;;;;;;5029418;28;20133;-66
2022/05/22 11:37:53;;;;;;;7.07;3.10;;;;;;;;;;5045674;28;20110;-63
2022/05/22 11:40:49;;;;;;;8.50;3.65;;;;;;;;;;5044838;28;20053;-64
2022/05/22 11:43:53;;;;;;;6.57;3.00;;;;;;;;;;5044847;28;20040;-62
2022/05/22 11:46:37;;;;;;;;;;;;;;;;;;5037669;28;20049;-64
2022/05/22 11:49:06;;;;;;;10.00;3.78;;;;;;;;;;5030932;28;19925;-62
2022/05/22 11:52:53;;;;;;;6.25;3.42;;;;;;;;;;5027481;28;20231;-63
2022/05/22 11:55:12;;;;;;;10.50;3.22;;;;;;;;;;5028748;28;20063;-62
2022/05/22 11:57:46;;;;;;;10.55;3.53;;;;;;;;;;5028924;28;20455;-64
2022/05/22 12:00:19;;;;;;;;;;;;;;;;;;5051558;28;20065;-62
2022/05/22 12:02:55;;;;;;;7.53;3.40;;;;;;;;;;5042541;28;19921;-62
2022/05/22 12:05:38;;;;;;;8.00;3.03;;;;;;;;;;5040210;28;20060;-64
2022/05/22 12:08:16;;;;;;;8.80;3.60;;;;;;;;;;5047371;28;20048;-65
2022/05/22 12:10:48;;;;;;;5.53;3.63;;;;;;;;;;5050811;28;20057;-69
2022/05/22 12:13:35;;;;;;;8.80;3.33;;;;;;;;;;5029364;28;20408;-63
2022/05/22 12:16:04;;;;;;;7.97;3.05;;;;;;;;;;5040711;28;20068;-62
2022/05/22 12:18:52;;;;;;;9.68;2.88;;;;;;;;;;5047840;28;20055;-62
2022/05/22 12:21:29;;;;;;;9.27;3.30;;;;;;;;;;5041402;28;20134;-63
2022/05/22 12:24:12;;;;;;;10.15;3.53;;;;;;;;;;5046037;28;20055;-63
2022/05/22 12:26:40;;;;;;;11.05;3.33;;;;;;;;;;5040897;28;20041;-64
2022/05/22 12:29:14;;;;;;;9.82;3.10;;;;;;;;;;5027291;28;20472;-62
2022/05/22 12:31:53;;;;;;;11.20;4.07;;;;;;;;;;5044918;28;20550;-64
2022/05/22 12:34:31;;;;;;;7.97;3.72;;;;;;;;;;5048707;28;20040;-62
2022/05/22 12:36:59;;;;;;;8.77;3.72;;;;;;;;;;5046362;28;20051;-65
2022/05/22 12:39:29;;;;;;;10.65;3.20;;;;;;;;;;5041706;28;20067;-65
2022/05/22 12:42:01;;;;;;;6.75;2.95;;;;;;;;;;5044447;28;20072;-63
2022/05/22 12:44:31;;;;;;;7.57;3.08;;;;;;;;;;5037649;28;20056;-65
2022/05/22 12:46:57;;;;;;;9.50;3.15;;;;;;;;;;5048809;28;20573;-66
2022/05/22 12:49:29;;;;;;;5.72;2.65;;;;;;;;;;5044717;28;20037;-63
2022/05/22 12:52:12;;;;;;;8.35;2.83;;;;;;;;;;5047407;28;20123;-66
2022/05/22 12:54:39;;;;;;;6.35;3.10;;;;;;;;;;5052723;28;20049;-64
2022/05/22 12:57:11;;;;;;;4.95;2.85;;;;;;;;;;5029305;28;20045;-65
2022/05/22 12:59:37;;;;;;;5.65;2.83;;;;;;;;;;5037437;28;20083;-64
2022/05/22 13:02:04;;;;;;;9.50;2.90;;;;;;;;;;5046805;28;20140;-63
2022/05/22 13:04:51;;;;;;;9.55;2.92;;;;;;;;;;5048603;28;20041;-63
2022/05/22 13:07:42;;;;;;;8.10;2.88;;;;;;;;;;5049238;28;20045;-67
2022/05/22 13:10:25;;;;;;;5.78;2.30;;;;;;;;;;5047858;28;20118;-63
2022/05/22 13:12:55;;;;;;;7.82;2.20;;;;;;;;;;5038219;28;20041;-63
2022/05/22 13:15:24;;;;;;;4.53;2.10;;;;;;;;;;5028466;28;20466;-65
2022/05/22 13:18:11;;;;;;;7.72;2.30;;;;;;;;;;5032104;28;20136;-63
2022/05/22 13:20:37;;;;;;;5.18;2.40;;;;;;;;;;5030407;28;20068;-62
2022/05/22 13:23:10;;;;;;;7.47;2.25;;;;;;;;;;5047660;28;20048;-64
2022/05/22 13:26:17;;;;;;;4.35;2.67;;;;;;;;;;5047111;28;20064;-64
2022/05/22 13:28:51;;;;;;;9.40;3.55;;;;;;;;;;5029126;28;20054;-64
2022/05/22 13:31:30;;;;;;;5.38;2.40;;;;;;;;;;5031491;28;20069;-64
2022/05/22 13:34:21;;;;;;;3.92;2.13;;;;;;;;;;5044910;28;20056;-63
2022/05/22 13:36:53;;;;;;;5.07;2.50;;;;;;;;;;5026481;28;20091;-66
2022/05/22 13:39:58;;;;;;;9.52;2.53;;;;;;;;;;5026913;28;20053;-63
2022/05/22 13:42:57;;;;;;;5.65;2.50;;;;;;;;;;5031629;28;20045;-63
2022/05/22 13:45:41;;;;;;;7.53;2.22;;;;;;;;;;5027789;28;20048;-63
2022/05/22 13:48:19;;;;;;;5.72;2.20;;;;;;;;;;5032652;28;20044;-70
2022/05/22 13:54:04;;;;;;;5.57;2.50;;;;;;;;;;5026710;28;20056;-64
2022/05/22 13:56:54;;;;;;;10.55;3.70;;;;;;;;;;5026285;28;20047;-62
2022/05/22 13:59:26;;;;;;;5.90;3.03;;;;;;;;;;5026694;28;20053;-64
2022/05/22 14:01:54;;;;;;;5.80;2.90;;;;;;;;;;5029047;28;20386;-66
2022/05/22 14:04:20;;;;;;;7.22;2.30;;;;;;;;;;5045335;28;20524;-64
2022/05/22 14:06:50;;;;;;;8.00;2.83;;;;;;;;;;5046286;28;20376;-65
2022/05/22 14:09:36;;;;;;;5.97;2.72;;;;;;;;;;5037068;28;20132;-62
2022/05/22 14:12:02;;;;;;;7.85;2.63;;;;;;;;;;5027102;28;20046;-65
2022/05/22 14:14:34;;;;;;;5.70;2.78;;;;;;;;;;5038805;28;20254;-62
2022/05/22 14:17:03;;;;;;;9.57;2.42;;;;;;;;;;5038444;28;20528;-65
2022/05/22 14:19:35;;;;;;;6.50;2.15;;;;;;;;;;5041410;28;20107;-64
2022/05/22 14:22:22;;;;;;;8.98;2.67;;;;;;;;;;5049379;28;20045;-65
2022/05/22 14:24:55;;;;;;;4.32;2.28;;;;;;;;;;5050021;28;20049;-62
2022/05/22 14:27:42;;;;;;;8.90;2.90;;;;;;;;;;5049625;28;20045;-62
2022/05/22 14:30:19;;;;;;;8.27;2.90;;;;;;;;;;5049561;28;20125;-64
2022/05/22 14:32:51;;;;;;;9.70;2.92;;;;;;;;;;5049986;28;20165;-64
2022/05/22 14:35:22;;;;;;;5.68;2.45;;;;;;;;;;5045508;28;20508;-72
2022/05/22 14:37:49;;;;;;;6.90;2.17;;;;;;;;;;5048981;28;20053;-62
2022/05/22 14:40:22;;;;;;;4.85;2.45;;;;;;;;;;5050313;28;20045;-64
2022/05/22 14:42:53;;;;;;;8.50;2.60;;;;;;;;;;5049185;28;20049;-62
2022/05/22 14:45:32;;;;;;;5.40;2.55;;;;;;;;;;5045622;28;20130;-64
2022/05/22 14:48:01;;;;;;;8.98;2.90;;;;;;;;;;5037992;28;20420;-62
2022/05/22 14:50:27;;;;;;;7.43;2.65;;;;;;;;;;5031416;28;20042;-64
2022/05/22 14:53:10;;;;;;;8.07;2.35;;;;;;;;;;5044653;28;20071;-64
2022/05/22 14:55:40;;;;;;;9.25;2.45;;;;;;;;;;5041397;28;20053;-65
2022/05/22 14:58:19;;;;;;;6.40;2.38;;;;;;;;;;5031223;28;20073;-65
2022/05/22 15:00:56;;;;;;;8.95;2.63;;;;;;;;;;5043145;28;20269;-68
2022/05/22 15:03:42;;;;;;;5.47;2.30;;;;;;;;;;5051114;28;20049;-62
2022/05/22 15:06:09;;;;;;;8.38;2.80;;;;;;;;;;5050212;28;20049;-64
2022/05/22 15:08:49;;;;;;;6.60;2.50;;;;;;;;;;5035712;28;20046;-63
2022/05/22 15:11:37;;;;;;;6.78;2.75;;;;;;;;;;5039788;28;20469;-65
2022/05/22 15:14:07;;;;;;;6.38;2.50;;;;;;;;;;5050360;28;20540;-63
2022/05/22 15:16:39;;;;;;;8.63;2.92;;;;;;;;;;5045667;28;20045;-68
2022/05/22 15:25:29;;;;;;;4.38;2.15;;;;;;;;;;5033719;28;20111;-63